createdAt,value
2022-12-03T00:00:35.157Z,88.75
2022-12-03T00:03:39.088Z,88.63
2022-12-03T00:06:41.717Z,88.52
2022-12-03T00:09:44.252Z,87.43
2022-12-03T00:12:46.847Z,87.77
2022-12-03T00:15:49.459Z,88.23
2022-12-03T00:18:53.340Z,87.89
2022-12-03T00:21:55.823Z,87.86
2022-12-03T00:24:58.329Z,87.89
2022-12-03T00:28:00.866Z,87.74
2022-12-03T00:31:03.435Z,87.77
2022-12-03T00:34:07.326Z,87.66
2022-12-03T00:37:09.841Z,88.08
2022-12-03T00:40:12.984Z,88.00
2022-12-03T00:43:15.485Z,87.51
2022-12-03T00:46:21.356Z,87.72
2022-12-03T00:49:25.661Z,88.53
2022-12-03T00:52:28.200Z,88.52
2022-12-03T00:55:30.750Z,87.45
2022-12-03T00:58:33.265Z,87.86
2022-12-03T01:01:35.885Z,88.01
2022-12-03T01:04:39.888Z,88.48
2022-12-03T01:07:42.501Z,88.08
2022-12-03T01:10:45.034Z,88.30
2022-12-03T01:13:47.527Z,88.14
2022-12-03T01:16:50.077Z,88.73
2022-12-03T01:19:53.998Z,88.70
2022-12-03T01:22:56.482Z,88.26
2022-12-03T01:25:58.973Z,88.05
2022-12-03T01:29:01.516Z,88.10
2022-12-03T01:32:19.419Z,88.08
2022-12-03T01:35:23.218Z,87.48
2022-12-03T01:38:25.766Z,87.87
2022-12-03T01:41:28.491Z,87.48
2022-12-03T01:44:31.805Z,87.68
2022-12-03T01:47:35.328Z,87.82
2022-12-03T01:50:39.197Z,88.21
2022-12-03T01:53:41.873Z,88.22
2022-12-03T01:56:44.474Z,87.95
2022-12-03T01:59:46.963Z,88.47
2022-12-03T02:02:50.385Z,87.12
2022-12-03T02:05:54.298Z,87.92
2022-12-03T02:08:59.634Z,88.52
2022-12-03T02:12:02.185Z,87.81
2022-12-03T02:15:05.730Z,88.03
2022-12-03T02:18:08.289Z,88.00
2022-12-03T02:21:14.166Z,87.67
2022-12-03T02:24:19.219Z,87.64
2022-12-03T02:27:23.081Z,87.56
2022-12-03T02:30:26.230Z,88.65
2022-12-03T02:33:28.769Z,88.57
2022-12-03T02:36:31.897Z,88.55
2022-12-03T02:39:35.025Z,88.28
2022-12-03T02:42:39.237Z,88.48
2022-12-03T02:45:43.185Z,89.16
2022-12-03T02:48:45.683Z,89.00
2022-12-03T02:51:48.160Z,88.32
2022-12-03T02:54:50.705Z,88.48
2022-12-03T02:57:54.803Z,88.33
2022-12-03T03:00:57.407Z,87.66
2022-12-03T03:04:00.610Z,88.69
2022-12-03T03:07:03.110Z,88.01
2022-12-03T03:10:06.440Z,88.60
2022-12-03T03:13:11.141Z,88.55
2022-12-03T03:16:13.742Z,88.33
2022-12-03T03:19:16.322Z,88.79
2022-12-03T03:22:18.858Z,88.19
2022-12-03T03:25:22.367Z,88.26
2022-12-03T03:28:26.463Z,87.97
2022-12-03T03:31:28.961Z,88.19
2022-12-03T03:34:31.532Z,88.08
2022-12-03T03:37:34.062Z,88.12
2022-12-03T03:40:36.980Z,88.74
2022-12-03T03:43:40.858Z,88.51
2022-12-03T03:46:43.598Z,88.58
2022-12-03T03:49:47.865Z,88.68
2022-12-03T03:52:50.353Z,88.26
2022-12-03T03:55:52.847Z,88.59
2022-12-03T03:58:57.300Z,88.75
2022-12-03T04:01:59.831Z,89.39
2022-12-03T04:05:02.395Z,89.39
2022-12-03T04:08:05.253Z,89.25
2022-12-03T04:11:25.400Z,89.13
2022-12-03T04:14:29.201Z,89.07
2022-12-03T04:17:31.797Z,89.73
2022-12-03T04:20:34.336Z,88.91
2022-12-03T04:23:35.906Z,88.96
2022-12-03T04:26:55.877Z,89.66
2022-12-03T04:29:59.692Z,88.97
2022-12-03T04:33:20.144Z,89.36
2022-12-03T04:36:22.695Z,89.16
2022-12-03T04:39:25.296Z,88.99
2022-12-03T04:42:27.843Z,89.28
2022-12-03T04:45:31.749Z,89.75
2022-12-03T04:48:34.405Z,88.78
2022-12-03T04:51:36.906Z,89.09
2022-12-03T04:54:39.563Z,88.74
2022-12-03T04:57:42.073Z,88.78
2022-12-03T05:00:45.913Z,89.37
2022-12-03T05:03:48.447Z,89.31
2022-12-03T05:06:50.996Z,89.14
2022-12-03T05:09:53.543Z,88.56
2022-12-03T05:12:56.028Z,88.74
2022-12-03T05:15:59.886Z,89.13
2022-12-03T05:19:02.534Z,88.96
2022-12-03T05:22:05.069Z,88.79
2022-12-03T05:25:08.213Z,88.30
2022-12-03T05:28:10.721Z,89.04
2022-12-03T05:31:14.671Z,89.34
2022-12-03T05:34:17.216Z,89.82
2022-12-03T05:37:19.791Z,88.91
2022-12-03T05:40:22.378Z,89.57
2022-12-03T05:43:24.161Z,89.04
2022-12-03T05:46:28.121Z,89.24
2022-12-03T05:49:30.660Z,89.08
2022-12-03T05:52:33.170Z,88.82
2022-12-03T05:55:35.645Z,88.93
2022-12-03T05:58:38.229Z,88.78
2022-12-03T06:01:42.073Z,88.04
2022-12-03T06:04:44.565Z,87.82
2022-12-03T06:07:47.376Z,88.34
2022-12-03T06:10:50.015Z,88.09
2022-12-03T06:13:52.919Z,88.40
2022-12-03T06:16:56.802Z,88.23
2022-12-03T06:19:59.366Z,88.36
2022-12-03T06:23:01.830Z,87.80
2022-12-03T06:26:04.320Z,88.17
2022-12-03T06:29:06.857Z,88.41
2022-12-03T06:32:10.801Z,87.97
2022-12-03T06:35:13.377Z,87.70
2022-12-03T06:38:15.918Z,87.20
2022-12-03T06:41:18.424Z,88.14
2022-12-03T06:44:21.465Z,87.54
2022-12-03T06:47:25.369Z,87.22
2022-12-03T06:50:27.981Z,86.65
2022-12-03T06:53:30.520Z,87.11
2022-12-03T06:56:37.817Z,87.16
2022-12-03T06:59:41.717Z,87.02
2022-12-03T07:02:45.689Z,86.98
2022-12-03T07:05:48.252Z,86.43
2022-12-03T07:08:50.789Z,87.19
2022-12-03T07:11:53.358Z,87.04
2022-12-03T07:14:56.388Z,87.38
2022-12-03T07:18:00.447Z,86.74
2022-12-03T07:21:03.059Z,87.55
2022-12-03T07:24:05.963Z,87.63
2022-12-03T07:27:08.489Z,86.80
2022-12-03T07:30:12.539Z,86.87
2022-12-03T07:33:16.387Z,87.69
2022-12-03T07:36:18.861Z,86.86
2022-12-03T07:39:21.352Z,87.03
2022-12-03T07:42:23.931Z,86.44
2022-12-03T07:45:26.500Z,86.09
2022-12-03T07:48:30.326Z,86.00
2022-12-03T07:51:32.821Z,86.78
2022-12-03T07:54:35.385Z,85.96
2022-12-03T07:57:37.941Z,85.91
2022-12-03T08:00:40.479Z,86.63
2022-12-03T08:03:44.328Z,86.21
2022-12-03T08:06:46.857Z,86.86
2022-12-03T08:09:49.414Z,86.72
2022-12-03T08:12:52.528Z,87.24
2022-12-03T08:15:56.557Z,87.34
2022-12-03T08:19:00.496Z,87.51
2022-12-03T08:22:03.021Z,86.89
2022-12-03T08:25:07.642Z,87.60
2022-12-03T08:28:13.484Z,86.17
2022-12-03T08:31:19.926Z,87.21
2022-12-03T08:34:24.564Z,86.91
2022-12-03T08:37:27.115Z,87.31
2022-12-03T08:40:35.103Z,87.52
2022-12-03T08:43:41.876Z,86.73
2022-12-03T08:46:44.391Z,86.93
2022-12-03T08:49:49.079Z,87.23
2022-12-03T08:52:51.625Z,86.87
2022-12-03T08:55:54.757Z,86.93
2022-12-03T08:58:58.357Z,86.66
2022-12-03T09:02:00.877Z,86.05
2022-12-03T09:05:11.928Z,86.10
2022-12-03T09:08:14.507Z,85.68
2022-12-03T09:11:17.085Z,85.92
2022-12-03T09:14:21.094Z,85.85
2022-12-03T09:17:23.697Z,85.72
2022-12-03T09:20:27.544Z,84.58
2022-12-03T09:23:30.058Z,84.03
2022-12-03T09:26:32.613Z,84.05
2022-12-03T09:29:35.108Z,84.75
2022-12-03T09:32:37.658Z,83.01
2022-12-03T09:35:41.529Z,83.95
2022-12-03T09:38:47.599Z,83.46
2022-12-03T09:41:50.595Z,83.18
2022-12-03T09:44:53.535Z,83.04
2022-12-03T09:47:56.178Z,83.22
2022-12-03T09:51:00.079Z,83.45
2022-12-03T09:54:07.660Z,82.78
2022-12-03T09:57:12.188Z,83.06
2022-12-03T10:00:18.675Z,82.51
2022-12-03T10:03:26.498Z,82.43
2022-12-03T10:06:33.444Z,82.76
2022-12-03T10:09:36.021Z,82.42
2022-12-03T10:12:38.541Z,82.47
2022-12-03T10:15:41.079Z,82.70
2022-12-03T10:29:57.026Z,85.77
2022-12-03T10:33:02.574Z,82.63
2022-12-03T10:36:15.734Z,79.10
2022-12-03T10:39:18.277Z,77.72
2022-12-03T10:42:20.893Z,75.83
2022-12-03T10:45:24.848Z,74.84
2022-12-03T10:48:27.460Z,73.61
2022-12-03T10:51:29.997Z,72.19
2022-12-03T10:54:32.785Z,71.23
2022-12-03T10:57:35.336Z,70.33
2022-12-03T12:27:33.289Z,61.82
2022-12-03T12:30:35.756Z,62.29
2022-12-03T12:39:33.937Z,60.12
2022-12-03T12:42:37.220Z,60.63
2022-12-03T12:45:41.061Z,59.82
2022-12-03T12:52:20.438Z,58.83
